Time;durP1;ratioP1;P1;durP2;ratioP2;P2;SDS_P1;SDS_P2;PMS_P1;PMS_P2;Temp;Humidity;BMP_temperature;BMP_pressure;BME280_temperature;BME280_humidity;BME280_pressure;Samples;Min_cycle;Max_cycle;Signal;HPM_P1;HPM_P2
2021/11/25 00:01:54;;;;;;;17.67;12.07;;;5.60;99.90;;;;;;6240014;22;20023;-75
2021/11/25 00:04:19;;;;;;;15.60;11.23;;;5.60;99.90;;;;;;6237430;23;20305;-75
2021/11/25 00:06:45;;;;;;;15.50;10.93;;;5.60;99.90;;;;;;6239708;23;20004;-75
2021/11/25 00:09:11;;;;;;;16.58;11.30;;;5.60;99.90;;;;;;6241035;22;20466;-75
2021/11/25 00:11:37;;;;;;;17.23;11.55;;;5.70;99.90;;;;;;6244599;22;19997;-78
2021/11/25 00:14:04;;;;;;;15.80;11.25;;;5.70;99.90;;;;;;6242533;23;20004;-78
2021/11/25 00:16:30;;;;;;;16.02;10.63;;;5.70;99.90;;;;;;6238343;22;20432;-79
2021/11/25 00:18:56;;;;;;;16.23;12.55;;;5.60;99.90;;;;;;6238838;22;20007;-78
2021/11/25 00:21:22;;;;;;;17.25;12.10;;;5.70;99.90;;;;;;6239717;22;20066;-78
2021/11/25 00:23:48;;;;;;;18.95;12.15;;;5.60;99.90;;;;;;6238576;22;19996;-79
2021/11/25 00:26:14;;;;;;;21.15;12.52;;;5.70;99.90;;;;;;6237763;23;20008;-78
2021/11/25 00:28:40;;;;;;;17.10;11.90;;;5.70;99.90;;;;;;6239438;22;20173;-78
2021/11/25 00:31:06;;;;;;;18.17;12.77;;;5.70;99.90;;;;;;6238689;22;20489;-79
2021/11/25 00:33:32;;;;;;;19.70;12.63;;;5.70;99.90;;;;;;6239492;23;20004;-79
2021/11/25 00:36:27;;;;;;;17.60;12.27;;;5.60;99.90;;;;;;6239168;22;20000;-75
2021/11/25 00:38:52;;;;;;;21.55;13.20;;;5.60;99.90;;;;;;6264040;22;20455;-78
2021/11/25 00:41:18;;;;;;;22.25;12.82;;;5.60;99.90;;;;;;6239438;22;20305;-75
2021/11/25 00:43:44;;;;;;;18.90;12.63;;;5.60;99.90;;;;;;6239804;22;20454;-75
2021/11/25 00:46:10;;;;;;;18.15;12.20;;;5.60;99.90;;;;;;6239279;23;20085;-75
2021/11/25 00:48:36;;;;;;;21.40;12.93;;;5.60;99.90;;;;;;6236769;23;20001;-75
2021/11/25 00:51:02;;;;;;;20.10;13.35;;;5.60;99.90;;;;;;6242980;23;20000;-75
2021/11/25 00:53:27;;;;;;;17.45;11.90;;;5.60;99.90;;;;;;6240770;22;20332;-79
2021/11/25 00:55:53;;;;;;;17.83;12.70;;;5.60;99.90;;;;;;6236617;23;20608;-79
2021/11/25 00:58:20;;;;;;;20.40;12.75;;;5.60;99.90;;;;;;6238653;22;20016;-79
2021/11/25 01:00:47;;;;;;;20.33;13.25;;;5.50;99.90;;;;;;6237121;23;20008;-79
2021/11/25 01:03:13;;;;;;;19.42;13.18;;;5.50;99.90;;;;;;6237870;22;20000;-78
2021/11/25 01:05:39;;;;;;;22.83;13.20;;;5.50;99.90;;;;;;6239140;22;20303;-79
2021/11/25 01:08:05;;;;;;;20.92;13.30;;;5.50;99.90;;;;;;6238096;22;20431;-79
2021/11/25 01:10:31;;;;;;;20.48;12.98;;;5.50;99.90;;;;;;6238290;23;20000;-78
2021/11/25 01:12:57;;;;;;;19.73;12.77;;;5.50;99.90;;;;;;6239123;22;20547;-79
2021/11/25 01:15:30;;;;;;;18.55;13.57;;;5.50;99.90;;;;;;6237933;23;20067;-79
2021/11/25 01:18:04;;;;;;;19.30;12.65;;;5.50;99.90;;;;;;6237686;22;20066;-78
2021/11/25 01:20:31;;;;;;;21.90;13.45;;;5.50;99.90;;;;;;6238633;22;20004;-78
2021/11/25 01:22:58;;;;;;;20.67;13.38;;;5.50;99.90;;;;;;6239138;22;19996;-79
2021/11/25 01:25:24;;;;;;;18.42;13.60;;;5.50;99.90;;;;;;6238130;22;20023;-79
2021/11/25 01:27:50;;;;;;;23.20;14.43;;;5.40;99.90;;;;;;6237090;23;20051;-79
2021/11/25 01:30:16;;;;;;;20.23;13.25;;;5.30;99.90;;;;;;6238598;22;20004;-79
2021/11/25 01:32:42;;;;;;;22.70;14.48;;;5.30;99.90;;;;;;6236524;23;20008;-78
2021/11/25 01:35:08;;;;;;;21.35;14.30;;;5.30;99.90;;;;;;6239228;22;20392;-79
2021/11/25 01:37:35;;;;;;;22.20;14.05;;;5.30;99.90;;;;;;6237876;22;20009;-79
2021/11/25 01:40:02;;;;;;;23.17;14.85;;;5.40;99.90;;;;;;6238434;22;19996;-79
2021/11/25 01:42:27;;;;;;;23.30;14.30;;;5.40;99.90;;;;;;6237666;23;20004;-79
2021/11/25 01:44:53;;;;;;;20.65;13.90;;;5.40;99.90;;;;;;6242422;23;20309;-79
2021/11/25 01:47:19;;;;;;;19.88;13.73;;;5.40;99.90;;;;;;6244123;22;20004;-79
2021/11/25 01:49:44;;;;;;;20.15;14.00;;;5.40;99.90;;;;;;6243762;23;20007;-79
2021/11/25 01:52:10;;;;;;;21.95;13.95;;;5.40;99.90;;;;;;6236559;23;20000;-79
2021/11/25 01:54:36;;;;;;;20.92;14.43;;;5.40;99.90;;;;;;6237801;22;20480;-79
2021/11/25 01:57:02;;;;;;;21.63;14.20;;;5.40;99.90;;;;;;6239188;23;20332;-79
2021/11/25 01:59:27;;;;;;;22.15;14.52;;;5.40;99.90;;;;;;6236545;23;20012;-79
2021/11/25 02:01:53;;;;;;;22.23;13.43;;;5.50;99.90;;;;;;6238577;22;20373;-79
2021/11/25 02:04:19;;;;;;;22.48;14.45;;;5.50;99.90;;;;;;6238535;23;20436;-79
2021/11/25 02:06:45;;;;;;;20.80;13.90;;;5.60;99.90;;;;;;6238241;22;20000;-79
2021/11/25 02:09:12;;;;;;;18.42;14.05;;;5.60;99.90;;;;;;6240635;22;20428;-79
2021/11/25 02:11:39;;;;;;;18.00;13.27;;;5.60;99.90;;;;;;6240047;22;20004;-79
2021/11/25 02:14:05;;;;;;;18.98;13.32;;;5.60;99.90;;;;;;6238102;23;20077;-79
2021/11/25 02:16:31;;;;;;;17.38;12.38;;;5.50;99.90;;;;;;6240690;23;20015;-79
2021/11/25 02:18:58;;;;;;;19.98;13.18;;;5.30;99.90;;;;;;6239963;22;20024;-79
2021/11/25 02:21:28;;;;;;;20.77;14.13;;;5.20;99.90;;;;;;6240017;22;20015;-78
2021/11/25 02:23:54;;;;;;;19.70;12.50;;;5.20;99.90;;;;;;6239079;23;20004;-79
2021/11/25 02:26:20;;;;;;;19.02;12.07;;;5.30;99.90;;;;;;6238264;23;20007;-79
2021/11/25 02:28:46;;;;;;;18.00;12.90;;;5.30;99.90;;;;;;6240146;22;20000;-79
2021/11/25 02:31:11;;;;;;;19.48;13.35;;;5.30;99.90;;;;;;6240324;23;20007;-79
2021/11/25 02:33:41;;;;;;;18.45;13.45;;;5.30;99.90;;;;;;6239602;22;20031;-79
2021/11/25 02:36:08;;;;;;;20.08;12.27;;;5.20;99.90;;;;;;6240180;22;20464;-79
2021/11/25 02:38:34;;;;;;;18.88;13.43;;;5.20;99.90;;;;;;6240133;22;20023;-79
2021/11/25 02:41:01;;;;;;;19.27;13.63;;;5.20;99.90;;;;;;6239681;22;20002;-79
2021/11/25 02:43:29;;;;;;;16.73;12.25;;;5.30;99.90;;;;;;6240707;22;20006;-79
2021/11/25 02:45:56;;;;;;;17.88;12.77;;;5.30;99.90;;;;;;6239811;22;20080;-79
2021/11/25 02:48:26;;;;;;;17.30;12.90;;;5.30;99.90;;;;;;6239167;23;20000;-79
2021/11/25 02:50:53;;;;;;;18.42;13.13;;;5.30;99.90;;;;;;6238658;23;20008;-79
2021/11/25 02:53:28;;;;;;;17.48;11.93;;;5.20;99.90;;;;;;6238570;23;20004;-79
2021/11/25 02:55:56;;;;;;;18.10;12.02;;;5.30;99.90;;;;;;6239641;22;20004;-78
2021/11/25 02:58:22;;;;;;;18.42;12.32;;;5.20;99.90;;;;;;6243394;23;20103;-78
2021/11/25 03:00:49;;;;;;;19.52;12.52;;;5.20;99.90;;;;;;6244853;23;20004;-78
2021/11/25 03:03:17;;;;;;;18.05;12.02;;;5.30;99.90;;;;;;6246235;22;20000;-78
2021/11/25 03:05:46;;;;;;;16.50;12.10;;;5.40;99.90;;;;;;6246656;22;20000;-79
2021/11/25 03:08:12;;;;;;;16.80;11.05;;;5.50;99.90;;;;;;6244780;23;20008;-79
2021/11/25 03:10:48;;;;;;;15.50;11.43;;;5.40;99.90;;;;;;6243767;23;20008;-78
2021/11/25 03:13:16;;;;;;;16.42;11.45;;;5.50;99.90;;;;;;6245340;22;20008;-78
2021/11/25 03:15:42;;;;;;;19.33;12.05;;;5.60;99.90;;;;;;6245342;22;20039;-78
2021/11/25 03:18:10;;;;;;;17.63;12.23;;;5.70;99.90;;;;;;6244699;22;20028;-79
2021/11/25 03:20:37;;;;;;;20.42;12.63;;;5.60;99.90;;;;;;6243526;23;20000;-78
2021/11/25 03:23:05;;;;;;;17.60;11.30;;;5.60;99.90;;;;;;6243447;23;20090;-78
2021/11/25 03:25:33;;;;;;;17.42;12.18;;;5.60;99.90;;;;;;6245730;22;20004;-78
2021/11/25 03:27:59;;;;;;;17.25;12.10;;;5.60;99.90;;;;;;6243832;23;20004;-79
2021/11/25 03:30:24;;;;;;;18.20;11.70;;;5.70;99.90;;;;;;6245110;22;20000;-78
2021/11/25 03:32:50;;;;;;;17.63;12.18;;;5.70;99.90;;;;;;6244850;23;20012;-79
2021/11/25 03:35:16;;;;;;;14.15;11.15;;;5.70;99.90;;;;;;6245258;22;20000;-78
2021/11/25 03:37:42;;;;;;;16.23;11.40;;;5.70;99.90;;;;;;6235814;23;20031;-78
2021/11/25 03:40:10;;;;;;;17.40;12.05;;;5.80;99.90;;;;;;6240344;22;19996;-78
2021/11/25 03:42:36;;;;;;;15.15;10.77;;;5.70;99.90;;;;;;6239608;22;20058;-78
2021/11/25 03:45:04;;;;;;;18.70;12.02;;;5.80;99.90;;;;;;6238955;22;20428;-77
2021/11/25 03:47:30;;;;;;;16.40;11.30;;;5.70;99.90;;;;;;6238495;23;20432;-78
2021/11/25 03:49:55;;;;;;;15.13;11.30;;;5.80;99.90;;;;;;6239172;22;20015;-78
2021/11/25 03:52:21;;;;;;;17.38;12.02;;;5.80;99.90;;;;;;6237703;23;20008;-78
2021/11/25 03:54:48;;;;;;;13.88;10.85;;;5.80;99.90;;;;;;6239845;23;20372;-78
2021/11/25 03:57:13;;;;;;;15.43;11.77;;;5.90;99.90;;;;;;6242241;22;20004;-78
2021/11/25 03:59:39;;;;;;;15.35;11.77;;;5.90;99.90;;;;;;6244580;22;20016;-75
2021/11/25 04:02:05;;;;;;;16.42;11.18;;;5.90;99.90;;;;;;6244576;22;19996;-75
2021/11/25 04:04:31;;;;;;;15.68;11.48;;;5.90;99.90;;;;;;6244754;22;20413;-75
2021/11/25 04:06:57;;;;;;;17.70;11.43;;;5.90;99.90;;;;;;6243328;23;20455;-77
2021/11/25 04:09:22;;;;;;;13.95;10.55;;;6.00;99.90;;;;;;6244071;23;20487;-79
2021/11/25 04:11:48;;;;;;;14.38;11.88;;;6.00;99.90;;;;;;6245535;23;20134;-75
2021/11/25 04:14:14;;;;;;;17.77;12.20;;;6.00;99.90;;;;;;6245894;23;20051;-75
2021/11/25 04:16:39;;;;;;;17.20;11.52;;;6.00;99.90;;;;;;6237966;23;20014;-75
2021/11/25 04:19:05;;;;;;;14.15;10.73;;;6.00;99.90;;;;;;6237598;23;20239;-75
2021/11/25 04:21:31;;;;;;;14.63;10.57;;;6.10;99.90;;;;;;6239424;23;19999;-75
2021/11/25 04:23:57;;;;;;;15.27;10.27;;;6.10;99.90;;;;;;6238729;22;19996;-75
2021/11/25 04:26:22;;;;;;;14.45;9.77;;;6.10;99.90;;;;;;6239479;22;20000;-75
2021/11/25 04:28:48;;;;;;;13.90;9.82;;;6.10;99.90;;;;;;6238497;23;20004;-75
2021/11/25 04:36:43;;;;;;;15.40;11.10;;;6.10;99.90;;;;;;6238600;23;20019;-75
2021/11/25 04:39:09;;;;;;;13.00;9.85;;;6.10;99.90;;;;;;6236809;23;20372;-75
2021/11/25 04:41:35;;;;;;;13.63;9.80;;;6.10;99.90;;;;;;6237709;23;20003;-75
2021/11/25 04:44:01;;;;;;;13.88;9.27;;;6.10;99.90;;;;;;6238460;22;19996;-75
2021/11/25 04:46:28;;;;;;;11.43;8.77;;;6.10;99.90;;;;;;6239012;22;20000;-75
2021/11/25 04:48:54;;;;;;;13.18;9.60;;;6.20;99.90;;;;;;6239156;22;20088;-75
2021/11/25 04:51:20;;;;;;;15.07;9.48;;;6.20;99.90;;;;;;6238243;22;19997;-75
2021/11/25 04:53:46;;;;;;;10.73;8.68;;;6.20;99.90;;;;;;6239399;23;20000;-75
2021/11/25 04:56:12;;;;;;;11.25;8.35;;;6.20;99.90;;;;;;6238324;22;20008;-75
2021/11/25 04:58:37;;;;;;;10.32;8.38;;;6.20;99.90;;;;;;6238260;22;20012;-75
2021/11/25 05:01:04;;;;;;;11.32;8.30;;;6.30;99.90;;;;;;6239486;22;20372;-75
2021/11/25 05:03:29;;;;;;;11.02;7.75;;;6.30;99.90;;;;;;6238130;22;20003;-75
2021/11/25 05:05:55;;;;;;;11.32;8.18;;;6.40;99.90;;;;;;6239118;23;20000;-75
2021/11/25 05:08:22;;;;;;;10.43;8.27;;;6.40;99.90;;;;;;6238491;23;20008;-75
2021/11/25 05:10:48;;;;;;;11.18;8.13;;;6.40;99.90;;;;;;6238400;22;20011;-75
2021/11/25 05:13:14;;;;;;;11.27;8.73;;;6.40;99.90;;;;;;6237616;23;20058;-75
2021/11/25 05:15:40;;;;;;;12.32;7.88;;;6.40;99.90;;;;;;6238507;22;20073;-75
2021/11/25 05:18:06;;;;;;;11.00;7.32;;;6.40;99.90;;;;;;6236968;23;20083;-75
2021/11/25 05:20:32;;;;;;;12.20;7.65;;;6.40;99.90;;;;;;6237545;23;20023;-74
2021/11/25 05:22:58;;;;;;;11.95;7.90;;;6.50;99.90;;;;;;6238076;22;19996;-75
2021/11/25 05:25:24;;;;;;;8.95;6.43;;;6.50;99.90;;;;;;6240767;22;20001;-75
2021/11/25 05:27:50;;;;;;;10.60;7.50;;;6.50;99.90;;;;;;6237619;23;20031;-75
2021/11/25 05:30:17;;;;;;;8.05;7.25;;;6.50;99.90;;;;;;6238227;22;20046;-75
2021/11/25 05:32:43;;;;;;;7.60;6.75;;;6.50;99.90;;;;;;6238636;22;20340;-75
2021/11/25 05:35:10;;;;;;;10.27;6.90;;;6.50;99.90;;;;;;6238975;22;20090;-75
2021/11/25 05:37:36;;;;;;;8.13;6.90;;;6.50;99.90;;;;;;6236382;23;20008;-75
2021/11/25 05:40:06;;;;;;;10.20;6.70;;;6.60;99.90;;;;;;6238930;23;20003;-75
2021/11/25 05:42:32;;;;;;;8.27;6.43;;;6.70;99.90;;;;;;6239264;22;20332;-75
2021/11/25 05:44:59;;;;;;;9.02;6.57;;;6.70;99.90;;;;;;6239754;22;20075;-75
2021/11/25 05:47:25;;;;;;;9.15;6.75;;;6.70;99.90;;;;;;6240786;22;20000;-75
2021/11/25 05:49:51;;;;;;;7.22;6.07;;;6.70;99.90;;;;;;6238824;23;20376;-75
2021/11/25 05:52:16;;;;;;;8.85;6.57;;;6.70;99.90;;;;;;6239987;23;20007;-75
2021/11/25 05:54:42;;;;;;;7.15;6.18;;;6.70;99.90;;;;;;6239324;23;20004;-75
2021/11/25 05:57:08;;;;;;;6.07;5.45;;;6.70;99.90;;;;;;6238682;23;20014;-75
2021/11/25 05:59:34;;;;;;;6.88;6.00;;;6.70;99.90;;;;;;6238483;22;20016;-75
2021/11/25 06:02:02;;;;;;;8.32;6.03;;;6.80;99.90;;;;;;6242796;22;20470;-75
2021/11/25 06:04:29;;;;;;;8.18;5.38;;;6.80;99.90;;;;;;6243266;22;20000;-75
2021/11/25 06:06:55;;;;;;;7.10;5.50;;;6.80;99.90;;;;;;6243944;22;20004;-79
2021/11/25 06:09:21;;;;;;;6.93;5.57;;;6.80;99.90;;;;;;6239312;23;20595;-78
2021/11/25 06:11:49;;;;;;;7.72;5.50;;;6.90;99.90;;;;;;6238855;23;20031;-78
2021/11/25 06:14:14;;;;;;;6.40;5.15;;;6.90;99.90;;;;;;6238669;23;20035;-79
2021/11/25 06:16:40;;;;;;;8.85;6.68;;;6.90;99.90;;;;;;6239603;23;20000;-79
2021/11/25 06:19:06;;;;;;;10.30;6.68;;;7.00;99.90;;;;;;6240693;23;20657;-78
2021/11/25 06:21:32;;;;;;;6.72;5.85;;;7.10;99.90;;;;;;6239631;22;20058;-79
2021/11/25 06:23:57;;;;;;;9.23;5.50;;;7.10;99.90;;;;;;6240126;23;20024;-78
2021/11/25 06:26:23;;;;;;;9.63;6.90;;;7.10;99.90;;;;;;6240966;23;20460;-79
2021/11/25 06:28:49;;;;;;;10.50;7.45;;;7.00;99.90;;;;;;6239194;23;20015;-79
2021/11/25 06:31:15;;;;;;;12.23;7.40;;;7.00;99.90;;;;;;6241839;22;20031;-75
2021/11/25 06:33:40;;;;;;;9.90;6.97;;;7.00;99.90;;;;;;6237944;23;20004;-75
2021/11/25 06:36:06;;;;;;;9.20;7.13;;;7.00;99.90;;;;;;6238821;23;20083;-75
2021/11/25 06:38:32;;;;;;;10.50;7.38;;;7.00;99.90;;;;;;6237802;23;20088;-75
2021/11/25 06:40:58;;;;;;;8.98;7.10;;;7.00;99.90;;;;;;6238488;23;20000;-74
2021/11/25 06:43:26;;;;;;;9.98;6.72;;;7.00;99.90;;;;;;6239659;22;20011;-74
2021/11/25 06:45:52;;;;;;;14.00;7.00;;;7.00;99.90;;;;;;6239553;22;20063;-75
2021/11/25 06:48:18;;;;;;;12.45;7.60;;;7.00;99.90;;;;;;6239061;23;20383;-75
2021/11/25 06:50:43;;;;;;;12.63;7.43;;;7.00;99.90;;;;;;6237397;23;20340;-75
2021/11/25 06:53:10;;;;;;;11.50;7.47;;;7.00;99.90;;;;;;6245235;23;20103;-75
2021/11/25 06:55:36;;;;;;;10.77;7.35;;;7.10;99.90;;;;;;6243591;23;20238;-79
2021/11/25 06:58:02;;;;;;;9.60;7.20;;;7.00;99.90;;;;;;6244776;22;20000;-79
2021/11/25 07:00:28;;;;;;;11.80;7.40;;;7.00;99.90;;;;;;6245315;22;20007;-79
2021/11/25 07:02:55;;;;;;;9.65;7.38;;;7.10;99.90;;;;;;6243088;23;20424;-79
2021/11/25 07:05:22;;;;;;;8.18;6.85;;;7.10;99.90;;;;;;6243332;23;20383;-79
2021/11/25 07:07:48;;;;;;;11.07;8.27;;;7.10;99.90;;;;;;6244978;22;20005;-79
2021/11/25 07:10:14;;;;;;;10.40;7.22;;;7.10;99.90;;;;;;6245043;23;20457;-79
2021/11/25 07:12:40;;;;;;;11.23;8.27;;;7.20;99.90;;;;;;6243033;23;20008;-78
2021/11/25 07:15:08;;;;;;;11.90;7.82;;;7.20;99.90;;;;;;6244910;22;20495;-79
2021/11/25 07:17:34;;;;;;;12.15;8.20;;;7.20;99.90;;;;;;6244905;22;20035;-79
2021/11/25 07:20:02;;;;;;;13.68;7.97;;;7.20;99.90;;;;;;6246429;23;19999;-79
2021/11/25 07:22:28;;;;;;;11.48;8.00;;;7.20;99.90;;;;;;6241473;23;20416;-79
2021/11/25 07:24:53;;;;;;;10.52;8.77;;;7.20;99.90;;;;;;6243400;22;20003;-79
2021/11/25 07:27:19;;;;;;;10.00;7.18;;;7.30;99.90;;;;;;6240870;23;20008;-79
2021/11/25 07:29:52;;;;;;;10.27;7.63;;;7.30;99.90;;;;;;6243225;23;20054;-75
2021/11/25 07:32:24;;;;;;;14.07;9.43;;;7.30;99.90;;;;;;6244903;22;20054;-75
2021/11/25 07:34:50;;;;;;;15.38;9.77;;;7.20;99.90;;;;;;6242786;22;20029;-75
2021/11/25 07:37:18;;;;;;;19.02;10.27;;;7.20;99.90;;;;;;6242264;23;20007;-75
2021/11/25 07:39:43;;;;;;;27.63;14.18;;;7.30;99.90;;;;;;6243379;22;20008;-75
2021/11/25 07:42:09;;;;;;;26.98;14.27;;;7.30;99.90;;;;;;6241377;23;20472;-75
2021/11/25 07:44:35;;;;;;;22.95;12.65;;;7.30;99.90;;;;;;6240827;22;20420;-75
2021/11/25 07:47:01;;;;;;;23.58;13.00;;;7.30;99.90;;;;;;6241764;22;20000;-75
2021/11/25 07:49:27;;;;;;;32.30;14.98;;;7.30;99.90;;;;;;6241356;22;20004;-75
2021/11/25 07:51:52;;;;;;;49.17;21.58;;;7.30;99.90;;;;;;6238899;23;20087;-75
2021/11/25 07:54:18;;;;;;;60.85;22.00;;;7.30;99.90;;;;;;6241236;22;20436;-75
2021/11/25 07:56:45;;;;;;;53.47;23.10;;;7.30;99.90;;;;;;6239553;23;20425;-75
2021/11/25 07:59:11;;;;;;;51.05;21.95;;;7.30;99.90;;;;;;6242398;22;20015;-75
2021/11/25 08:01:36;;;;;;;79.45;31.98;;;7.40;99.90;;;;;;6240531;23;20000;-75
2021/11/25 08:04:02;;;;;;;79.93;32.45;;;7.40;99.90;;;;;;6242631;22;20000;-75
2021/11/25 08:06:28;;;;;;;80.65;31.42;;;7.50;99.90;;;;;;6242113;23;20000;-74
2021/11/25 08:08:54;;;;;;;62.40;25.10;;;7.50;99.90;;;;;;6242419;22;20004;-75
2021/11/25 08:11:20;;;;;;;38.13;17.10;;;7.50;99.90;;;;;;6240941;23;20008;-75
2021/11/25 08:13:45;;;;;;;26.60;12.68;;;7.60;99.90;;;;;;6242068;22;20010;-75
2021/11/25 08:16:15;;;;;;;21.77;11.85;;;7.60;99.90;;;;;;6242403;22;20000;-75
2021/11/25 08:18:41;;;;;;;21.38;10.90;;;7.70;99.90;;;;;;6242820;22;20413;-75
2021/11/25 08:21:07;;;;;;;22.35;11.30;;;7.70;99.90;;;;;;6242252;22;20007;-75
2021/11/25 08:23:33;;;;;;;31.65;15.60;;;7.80;99.90;;;;;;6241348;22;20050;-74
2021/11/25 08:25:59;;;;;;;34.00;16.67;;;7.80;99.90;;;;;;6239907;22;19996;-80
2021/11/25 08:28:25;;;;;;;34.72;15.95;;;7.70;99.90;;;;;;6236477;23;20015;-79
2021/11/25 08:30:52;;;;;;;37.78;17.27;;;7.70;99.90;;;;;;6237542;22;20000;-79
2021/11/25 08:33:20;;;;;;;35.70;16.05;;;7.80;99.90;;;;;;6235177;23;20433;-79
2021/11/25 08:35:46;;;;;;;35.63;16.60;;;7.80;99.90;;;;;;6236080;22;20620;-79
2021/11/25 08:38:11;;;;;;;34.85;16.70;;;7.70;99.90;;;;;;6238625;22;20083;-79
2021/11/25 08:40:37;;;;;;;30.67;15.73;;;7.70;99.90;;;;;;6242769;22;19996;-79
2021/11/25 08:43:03;;;;;;;31.05;14.70;;;7.80;99.90;;;;;;6244277;22;20430;-79
2021/11/25 08:45:29;;;;;;;28.30;14.38;;;7.80;99.90;;;;;;6243851;23;20368;-79
2021/11/25 08:47:56;;;;;;;32.72;16.73;;;7.80;99.90;;;;;;6242216;23;20008;-78
2021/11/25 08:50:22;;;;;;;27.60;15.38;;;7.80;99.90;;;;;;6244161;22;20008;-79
2021/11/25 08:52:48;;;;;;;29.92;14.75;;;7.80;99.90;;;;;;6242461;23;20014;-79
2021/11/25 08:55:14;;;;;;;37.50;15.35;;;7.80;99.90;;;;;;6242316;23;20098;-79
2021/11/25 08:57:40;;;;;;;31.73;15.05;;;7.80;99.90;;;;;;6242299;23;20008;-79
2021/11/25 09:00:09;;;;;;;29.45;14.45;;;7.80;99.90;;;;;;6243827;22;20101;-80
2021/11/25 09:02:35;;;;;;;26.83;13.90;;;7.80;99.90;;;;;;6243801;22;20000;-79
2021/11/25 09:05:01;;;;;;;31.40;15.18;;;7.90;99.90;;;;;;6243934;22;20428;-79
2021/11/25 09:07:26;;;;;;;24.67;13.93;;;7.90;99.90;;;;;;6243992;22;20035;-79
2021/11/25 09:09:52;;;;;;;28.00;14.45;;;7.90;99.90;;;;;;6243851;23;20000;-79
2021/11/25 09:12:18;;;;;;;25.20;13.23;;;7.90;99.90;;;;;;6242073;23;20031;-79
2021/11/25 09:14:44;;;;;;;33.58;14.70;;;7.90;99.90;;;;;;6244014;23;20031;-80
2021/11/25 09:17:10;;;;;;;42.17;21.88;;;7.90;99.90;;;;;;6244731;22;20007;-79
2021/11/25 09:19:35;;;;;;;35.45;18.85;;;7.90;99.90;;;;;;6244238;23;20000;-79
2021/11/25 09:22:02;;;;;;;33.85;18.80;;;7.90;99.90;;;;;;6244473;23;20445;-79
2021/11/25 09:24:27;;;;;;;33.10;18.25;;;7.90;99.90;;;;;;6245859;22;19996;-79
2021/11/25 09:26:53;;;;;;;29.70;17.67;;;7.90;99.90;;;;;;6243056;23;20070;-79
2021/11/25 09:29:20;;;;;;;22.23;12.82;;;7.90;99.90;;;;;;6239932;23;20340;-79
2021/11/25 09:31:47;;;;;;;24.23;14.32;;;8.00;99.90;;;;;;6239015;23;20011;-79
2021/11/25 09:34:13;;;;;;;28.25;15.45;;;8.00;99.90;;;;;;6238491;23;20004;-79
2021/11/25 09:36:40;;;;;;;26.17;14.93;;;8.00;99.90;;;;;;6240489;22;20007;-79
2021/11/25 09:39:08;;;;;;;26.90;13.90;;;8.00;99.90;;;;;;6241502;22;20336;-79
2021/11/25 09:41:35;;;;;;;26.30;14.55;;;7.90;99.90;;;;;;6239683;22;20508;-79
2021/11/25 09:44:01;;;;;;;18.70;11.65;;;7.90;99.90;;;;;;6240740;22;20411;-79
2021/11/25 09:46:27;;;;;;;26.88;12.98;;;7.90;99.90;;;;;;6240852;22;20000;-79
2021/11/25 09:48:55;;;;;;;24.35;12.52;;;8.00;99.90;;;;;;6238320;23;20035;-79
2021/11/25 09:51:23;;;;;;;19.90;12.10;;;8.00;99.90;;;;;;6239053;23;20008;-79
2021/11/25 09:53:49;;;;;;;18.10;12.02;;;8.00;99.90;;;;;;6239016;23;20090;-79
2021/11/25 09:56:15;;;;;;;21.98;13.27;;;8.00;99.90;;;;;;6238172;23;20032;-79
2021/11/25 09:58:41;;;;;;;20.08;12.35;;;8.00;99.90;;;;;;6239041;23;20317;-79
2021/11/25 10:01:08;;;;;;;21.48;12.45;;;8.00;99.90;;;;;;6238243;23;20091;-78
2021/11/25 10:03:35;;;;;;;22.83;12.07;;;8.00;99.90;;;;;;6238197;23;20047;-79
2021/11/25 10:06:01;;;;;;;24.63;12.00;;;8.00;99.90;;;;;;6241183;22;20387;-79
2021/11/25 10:08:45;;;;;;;22.92;13.68;;;8.00;99.90;;;;;;6238229;23;20008;-79
2021/11/25 10:11:24;;;;;;;24.23;12.93;;;8.00;99.90;;;;;;6239686;22;20007;-79
2021/11/25 10:14:02;;;;;;;19.73;12.63;;;8.00;99.90;;;;;;6238534;23;20019;-79
2021/11/25 10:16:31;;;;;;;26.90;13.63;;;8.00;99.90;;;;;;6239561;22;20000;-79
2021/11/25 10:18:59;;;;;;;25.08;13.32;;;8.00;99.90;;;;;;6239305;22;20035;-80
2021/11/25 10:21:27;;;;;;;34.05;17.95;;;8.00;99.90;;;;;;6240092;22;20053;-79
2021/11/25 10:23:55;;;;;;;38.60;19.80;;;8.00;99.90;;;;;;6240665;22;19996;-79
2021/11/25 10:26:27;;;;;;;34.20;20.73;;;8.00;99.90;;;;;;6239567;22;20495;-79
2021/11/25 10:29:03;;;;;;;27.65;16.85;;;8.00;99.90;;;;;;6239144;22;20332;-79
2021/11/25 10:31:34;;;;;;;31.08;16.77;;;7.90;99.90;;;;;;6238037;23;20012;-79
2021/11/25 10:34:11;;;;;;;29.00;17.02;;;7.90;99.90;;;;;;6238635;23;20213;-79
2021/11/25 10:42:18;;;;;;;28.23;16.42;;;8.00;99.90;;;;;;6245295;23;20062;-79
2021/11/25 10:44:47;;;;;;;34.85;18.88;;;8.00;99.90;;;;;;6241663;23;20335;-79
2021/11/25 10:47:15;;;;;;;26.73;16.02;;;8.00;99.90;;;;;;6238018;23;20058;-79
2021/11/25 10:49:50;;;;;;;28.27;15.43;;;8.10;99.90;;;;;;6240808;22;20030;-79
2021/11/25 10:52:37;;;;;;;26.38;18.25;;;8.10;99.90;;;;;;6240068;23;20084;-79
2021/11/25 10:55:05;;;;;;;30.45;17.63;;;8.10;99.90;;;;;;6238448;23;20103;-79
2021/11/25 10:57:39;;;;;;;29.48;17.17;;;8.10;99.90;;;;;;6239510;22;20005;-79
2021/11/25 11:00:27;;;;;;;28.95;15.90;;;8.10;99.90;;;;;;6239542;22;20138;-79
2021/11/25 11:03:29;;;;;;;30.95;15.45;;;8.20;99.90;;;;;;6239439;22;20000;-76
2021/11/25 11:06:04;;;;;;;33.95;17.10;;;8.20;99.90;;;;;;6240001;22;20074;-76
2021/11/25 11:08:43;;;;;;;35.83;16.88;;;8.10;99.90;;;;;;6239654;22;20102;-75
2021/11/25 11:11:10;;;;;;;37.85;17.92;;;8.10;99.90;;;;;;6240372;22;20039;-76
2021/11/25 11:13:43;;;;;;;32.13;17.00;;;8.10;99.90;;;;;;6239558;23;20428;-76
2021/11/25 11:16:25;;;;;;;32.70;17.25;;;8.10;99.90;;;;;;6240072;23;20004;-76
2021/11/25 11:18:56;;;;;;;28.52;16.77;;;8.00;99.90;;;;;;6239056;23;20008;-76
2021/11/25 11:21:34;;;;;;;29.80;16.40;;;8.10;99.90;;;;;;6239030;23;20340;-76
2021/11/25 11:24:13;;;;;;;33.42;18.73;;;8.10;99.90;;;;;;6240190;22;20225;-75
2021/11/25 11:26:51;;;;;;;38.15;17.67;;;8.00;99.90;;;;;;6238613;23;20004;-76
2021/11/25 11:29:20;;;;;;;27.85;16.55;;;8.00;99.90;;;;;;6239318;23;20008;-76
2021/11/25 11:31:48;;;;;;;27.35;16.42;;;8.00;99.90;;;;;;6240348;22;20204;-75
2021/11/25 11:34:15;;;;;;;22.98;14.40;;;8.10;99.90;;;;;;6238315;23;20039;-75
2021/11/25 11:36:45;;;;;;;26.10;13.82;;;8.10;99.90;;;;;;6240869;22;19999;-75
2021/11/25 11:39:14;;;;;;;25.60;13.20;;;8.10;99.90;;;;;;6240050;22;19996;-76
2021/11/25 11:41:46;;;;;;;23.50;13.95;;;8.20;99.90;;;;;;6238563;22;20024;-76
2021/11/25 11:44:12;;;;;;;22.13;13.90;;;8.20;99.90;;;;;;6239240;22;20000;-75
2021/11/25 11:46:40;;;;;;;20.40;13.48;;;8.10;99.90;;;;;;6238652;23;20011;-74
2021/11/25 11:49:07;;;;;;;22.80;13.02;;;8.10;99.90;;;;;;6239434;22;20004;-75
2021/11/25 11:51:33;;;;;;;21.52;13.35;;;8.10;99.90;;;;;;6239754;22;20488;-76
2021/11/25 11:54:02;;;;;;;22.05;13.20;;;8.00;99.90;;;;;;6239422;23;20004;-77
2021/11/25 11:56:35;;;;;;;17.63;11.80;;;8.00;99.90;;;;;;6239724;22;20000;-76
2021/11/25 11:59:01;;;;;;;17.95;11.75;;;8.00;99.90;;;;;;6237267;23;20333;-75
2021/11/25 12:01:29;;;;;;;21.10;12.38;;;8.00;99.90;;;;;;6240677;22;20309;-75
2021/11/25 12:04:09;;;;;;;19.67;11.82;;;7.90;99.90;;;;;;6238032;23;20086;-75
2021/11/25 12:06:45;;;;;;;22.83;12.35;;;7.80;99.90;;;;;;6237855;23;20368;-75
2021/11/25 12:09:14;;;;;;;22.58;11.73;;;7.80;99.90;;;;;;6236812;23;20004;-75
2021/11/25 12:11:55;;;;;;;18.92;12.07;;;7.70;99.90;;;;;;6236830;23;20048;-75
2021/11/25 12:14:26;;;;;;;23.50;12.00;;;7.70;99.90;;;;;;6243565;22;20000;-75
2021/11/25 12:16:51;;;;;;;20.65;12.18;;;7.80;99.90;;;;;;6244145;22;19996;-75
2021/11/25 12:19:36;;;;;;;19.77;10.38;;;7.80;99.90;;;;;;6240505;23;20748;-75
2021/11/25 12:22:25;;;;;;;14.48;10.57;;;7.70;99.90;;;;;;6238419;22;20000;-76
2021/11/25 12:24:59;;;;;;;18.25;10.95;;;7.70;99.90;;;;;;6239261;23;20510;-76
2021/11/25 12:27:30;;;;;;;16.73;9.93;;;7.70;99.90;;;;;;6238657;22;20062;-76
2021/11/25 12:30:04;;;;;;;20.02;12.02;;;7.70;99.90;;;;;;6238261;22;20008;-76
2021/11/25 12:35:25;;;;;;;14.77;9.07;;;7.80;99.90;;;;;;6238100;23;20066;-76
2021/11/25 12:38:01;;;;;;;16.75;10.63;;;7.80;99.90;;;;;;6238378;22;20004;-76
2021/11/25 12:40:26;;;;;;;17.67;10.25;;;7.80;99.90;;;;;;6236594;23;20103;-76
2021/11/25 12:42:58;;;;;;;18.73;10.57;;;7.80;99.90;;;;;;6239492;23;20024;-76
2021/11/25 12:45:26;;;;;;;21.27;14.88;;;7.80;99.90;;;;;;6239603;23;20396;-76
2021/11/25 12:48:13;;;;;;;21.15;12.38;;;7.80;99.90;;;;;;6243840;23;19992;-76
2021/11/25 12:50:43;;;;;;;17.45;11.10;;;7.80;99.90;;;;;;6243770;22;20074;-76
2021/11/25 12:53:19;;;;;;;17.17;10.32;;;7.70;99.90;;;;;;6236157;23;20420;-76
2021/11/25 12:55:58;;;;;;;18.63;11.07;;;7.70;99.90;;;;;;6238043;22;20013;-76
2021/11/25 12:58:40;;;;;;;22.58;11.82;;;7.70;99.90;;;;;;6236175;23;20016;-76